sensor_id;sensor_type;location;lat;lon;timestamp;P1;durP1;ratioP1;P2;durP2;ratioP2
69030;SDS011;56083;48.774;8.942;2023-04-25T00:01:16;3.10;;;1.60;;
69030;SDS011;56083;48.774;8.942;2023-04-25T00:03:42;7.07;;;1.73;;
69030;SDS011;56083;48.774;8.942;2023-04-25T00:06:08;3.35;;;1.90;;
69030;SDS011;56083;48.774;8.942;2023-04-25T00:08:33;3.13;;;1.60;;
69030;SDS011;56083;48.774;8.942;2023-04-25T00:11:00;3.25;;;1.70;;
69030;SDS011;56083;48.774;8.942;2023-04-25T00:13:25;4.50;;;1.80;;
69030;SDS011;56083;48.774;8.942;2023-04-25T00:15:52;4.60;;;1.85;;
69030;SDS011;56083;48.774;8.942;2023-04-25T00:18:18;4.55;;;1.90;;
69030;SDS011;56083;48.774;8.942;2023-04-25T00:20:45;4.70;;;2.15;;
69030;SDS011;56083;48.774;8.942;2023-04-25T00:23:20;3.58;;;1.60;;
69030;SDS011;56083;48.774;8.942;2023-04-25T00:25:49;3.38;;;2.00;;
69030;SDS011;56083;48.774;8.942;2023-04-25T00:28:15;5.55;;;1.90;;
69030;SDS011;56083;48.774;8.942;2023-04-25T00:30:41;4.22;;;1.92;;
69030;SDS011;56083;48.774;8.942;2023-04-25T00:33:08;5.57;;;1.77;;
69030;SDS011;56083;48.774;8.942;2023-04-25T00:35:34;4.57;;;2.30;;
69030;SDS011;56083;48.774;8.942;2023-04-25T00:38:00;5.40;;;2.08;;
69030;SDS011;56083;48.774;8.942;2023-04-25T00:40:26;6.15;;;2.03;;
69030;SDS011;56083;48.774;8.942;2023-04-25T00:42:52;4.38;;;2.20;;
69030;SDS011;56083;48.774;8.942;2023-04-25T00:45:19;5.00;;;2.10;;
69030;SDS011;56083;48.774;8.942;2023-04-25T00:47:45;6.05;;;2.28;;
69030;SDS011;56083;48.774;8.942;2023-04-25T00:50:12;7.38;;;1.92;;
69030;SDS011;56083;48.774;8.942;2023-04-25T00:52:39;4.65;;;2.00;;
69030;SDS011;56083;48.774;8.942;2023-04-25T00:55:08;4.22;;;2.38;;
69030;SDS011;56083;48.774;8.942;2023-04-25T00:57:35;3.95;;;2.38;;
69030;SDS011;56083;48.774;8.942;2023-04-25T01:00:00;7.68;;;2.55;;
69030;SDS011;56083;48.774;8.942;2023-04-25T01:02:26;7.10;;;2.65;;
69030;SDS011;56083;48.774;8.942;2023-04-25T01:04:52;4.82;;;2.42;;
69030;SDS011;56083;48.774;8.942;2023-04-25T01:07:18;4.72;;;2.60;;
69030;SDS011;56083;48.774;8.942;2023-04-25T01:09:44;5.63;;;2.67;;
69030;SDS011;56083;48.774;8.942;2023-04-25T01:12:11;5.43;;;2.33;;
69030;SDS011;56083;48.774;8.942;2023-04-25T01:14:37;5.28;;;2.20;;
69030;SDS011;56083;48.774;8.942;2023-04-25T01:17:03;5.50;;;2.35;;
69030;SDS011;56083;48.774;8.942;2023-04-25T01:19:29;6.47;;;2.30;;
69030;SDS011;56083;48.774;8.942;2023-04-25T01:21:55;7.50;;;2.45;;
69030;SDS011;56083;48.774;8.942;2023-04-25T01:24:21;5.45;;;2.40;;
69030;SDS011;56083;48.774;8.942;2023-04-25T01:26:46;5.95;;;2.67;;
69030;SDS011;56083;48.774;8.942;2023-04-25T01:29:17;5.97;;;2.42;;
69030;SDS011;56083;48.774;8.942;2023-04-25T01:31:43;4.97;;;2.50;;
69030;SDS011;56083;48.774;8.942;2023-04-25T01:34:10;7.85;;;2.70;;
69030;SDS011;56083;48.774;8.942;2023-04-25T01:36:36;6.03;;;2.50;;
69030;SDS011;56083;48.774;8.942;2023-04-25T01:39:02;4.95;;;2.15;;
69030;SDS011;56083;48.774;8.942;2023-04-25T01:41:28;5.18;;;2.28;;
69030;SDS011;56083;48.774;8.942;2023-04-25T01:43:54;4.50;;;2.30;;
69030;SDS011;56083;48.774;8.942;2023-04-25T01:46:20;3.20;;;2.00;;
69030;SDS011;56083;48.774;8.942;2023-04-25T01:48:46;5.10;;;2.40;;
69030;SDS011;56083;48.774;8.942;2023-04-25T01:51:12;6.30;;;2.50;;
69030;SDS011;56083;48.774;8.942;2023-04-25T01:53:38;5.25;;;2.30;;
69030;SDS011;56083;48.774;8.942;2023-04-25T01:56:04;8.27;;;3.03;;
69030;SDS011;56083;48.774;8.942;2023-04-25T01:58:30;6.15;;;2.60;;
69030;SDS011;56083;48.774;8.942;2023-04-25T02:00:56;6.28;;;2.78;;
69030;SDS011;56083;48.774;8.942;2023-04-25T02:03:22;9.13;;;2.92;;
69030;SDS011;56083;48.774;8.942;2023-04-25T02:05:50;4.25;;;3.05;;
69030;SDS011;56083;48.774;8.942;2023-04-25T02:08:16;5.43;;;3.00;;
69030;SDS011;56083;48.774;8.942;2023-04-25T02:10:43;6.55;;;2.97;;
69030;SDS011;56083;48.774;8.942;2023-04-25T02:13:09;5.80;;;2.90;;
69030;SDS011;56083;48.774;8.942;2023-04-25T02:15:38;6.43;;;3.10;;
69030;SDS011;56083;48.774;8.942;2023-04-25T02:18:04;8.00;;;2.97;;
69030;SDS011;56083;48.774;8.942;2023-04-25T02:20:31;5.78;;;3.13;;
69030;SDS011;56083;48.774;8.942;2023-04-25T02:22:57;6.85;;;2.78;;
69030;SDS011;56083;48.774;8.942;2023-04-25T02:25:23;7.75;;;2.75;;
69030;SDS011;56083;48.774;8.942;2023-04-25T02:27:49;4.10;;;2.80;;
69030;SDS011;56083;48.774;8.942;2023-04-25T02:30:16;5.47;;;2.75;;
69030;SDS011;56083;48.774;8.942;2023-04-25T02:32:42;6.25;;;2.58;;
69030;SDS011;56083;48.774;8.942;2023-04-25T02:35:08;5.88;;;2.42;;
69030;SDS011;56083;48.774;8.942;2023-04-25T02:37:36;8.23;;;2.97;;
69030;SDS011;56083;48.774;8.942;2023-04-25T02:40:03;9.40;;;2.90;;
69030;SDS011;56083;48.774;8.942;2023-04-25T02:42:29;5.82;;;2.83;;
69030;SDS011;56083;48.774;8.942;2023-04-25T02:44:55;5.38;;;2.80;;
69030;SDS011;56083;48.774;8.942;2023-04-25T02:47:21;7.03;;;3.00;;
69030;SDS011;56083;48.774;8.942;2023-04-25T02:49:47;5.35;;;2.75;;
69030;SDS011;56083;48.774;8.942;2023-04-25T02:52:12;4.80;;;3.10;;
69030;SDS011;56083;48.774;8.942;2023-04-25T02:54:39;5.75;;;2.90;;
69030;SDS011;56083;48.774;8.942;2023-04-25T02:57:05;7.22;;;2.70;;
69030;SDS011;56083;48.774;8.942;2023-04-25T02:59:31;6.60;;;2.72;;
69030;SDS011;56083;48.774;8.942;2023-04-25T03:01:57;5.60;;;2.80;;
69030;SDS011;56083;48.774;8.942;2023-04-25T03:04:23;8.10;;;3.00;;
69030;SDS011;56083;48.774;8.942;2023-04-25T03:06:49;6.13;;;2.65;;
69030;SDS011;56083;48.774;8.942;2023-04-25T03:09:15;6.53;;;2.90;;
69030;SDS011;56083;48.774;8.942;2023-04-25T03:11:41;5.28;;;2.78;;
69030;SDS011;56083;48.774;8.942;2023-04-25T03:14:06;4.22;;;2.60;;
69030;SDS011;56083;48.774;8.942;2023-04-25T03:16:32;6.68;;;2.70;;
69030;SDS011;56083;48.774;8.942;2023-04-25T03:18:58;6.95;;;2.75;;
69030;SDS011;56083;48.774;8.942;2023-04-25T03:21:24;6.80;;;2.72;;
69030;SDS011;56083;48.774;8.942;2023-04-25T03:23:50;5.60;;;2.85;;
69030;SDS011;56083;48.774;8.942;2023-04-25T03:26:15;6.85;;;2.90;;
69030;SDS011;56083;48.774;8.942;2023-04-25T03:28:41;4.72;;;2.70;;
69030;SDS011;56083;48.774;8.942;2023-04-25T03:31:07;5.18;;;2.80;;
69030;SDS011;56083;48.774;8.942;2023-04-25T03:33:32;6.82;;;3.00;;
69030;SDS011;56083;48.774;8.942;2023-04-25T03:35:58;5.72;;;2.85;;
69030;SDS011;56083;48.774;8.942;2023-04-25T03:38:23;6.78;;;2.67;;
69030;SDS011;56083;48.774;8.942;2023-04-25T03:40:49;9.75;;;2.97;;
69030;SDS011;56083;48.774;8.942;2023-04-25T03:43:16;4.57;;;2.78;;
69030;SDS011;56083;48.774;8.942;2023-04-25T03:45:42;6.13;;;2.70;;
69030;SDS011;56083;48.774;8.942;2023-04-25T03:48:07;6.03;;;2.95;;
69030;SDS011;56083;48.774;8.942;2023-04-25T03:50:33;8.35;;;2.63;;
69030;SDS011;56083;48.774;8.942;2023-04-25T03:52:59;6.60;;;2.80;;
69030;SDS011;56083;48.774;8.942;2023-04-25T03:55:25;7.53;;;2.78;;
69030;SDS011;56083;48.774;8.942;2023-04-25T03:57:50;7.40;;;2.80;;
69030;SDS011;56083;48.774;8.942;2023-04-25T04:00:16;6.53;;;3.05;;
69030;SDS011;56083;48.774;8.942;2023-04-25T04:02:41;6.72;;;3.20;;
69030;SDS011;56083;48.774;8.942;2023-04-25T04:05:07;7.85;;;3.15;;
69030;SDS011;56083;48.774;8.942;2023-04-25T04:07:33;7.20;;;3.45;;
69030;SDS011;56083;48.774;8.942;2023-04-25T04:10:04;6.07;;;4.03;;
69030;SDS011;56083;48.774;8.942;2023-04-25T04:12:31;6.25;;;3.72;;
69030;SDS011;56083;48.774;8.942;2023-04-25T04:14:57;10.50;;;4.13;;
69030;SDS011;56083;48.774;8.942;2023-04-25T04:17:22;9.65;;;3.85;;
69030;SDS011;56083;48.774;8.942;2023-04-25T04:19:48;5.50;;;3.30;;
69030;SDS011;56083;48.774;8.942;2023-04-25T04:22:14;6.00;;;3.30;;
69030;SDS011;56083;48.774;8.942;2023-04-25T04:24:40;7.47;;;3.58;;
69030;SDS011;56083;48.774;8.942;2023-04-25T04:27:08;8.25;;;3.28;;
69030;SDS011;56083;48.774;8.942;2023-04-25T04:29:34;6.65;;;3.35;;
69030;SDS011;56083;48.774;8.942;2023-04-25T04:32:01;7.03;;;3.53;;
69030;SDS011;56083;48.774;8.942;2023-04-25T04:34:28;14.13;;;4.05;;
69030;SDS011;56083;48.774;8.942;2023-04-25T04:36:54;9.27;;;3.75;;
69030;SDS011;56083;48.774;8.942;2023-04-25T04:39:20;8.82;;;3.90;;
69030;SDS011;56083;48.774;8.942;2023-04-25T04:41:46;7.50;;;3.38;;
69030;SDS011;56083;48.774;8.942;2023-04-25T04:44:12;4.82;;;3.10;;
69030;SDS011;56083;48.774;8.942;2023-04-25T04:46:39;8.02;;;3.17;;
69030;SDS011;56083;48.774;8.942;2023-04-25T04:49:05;7.88;;;3.30;;
69030;SDS011;56083;48.774;8.942;2023-04-25T04:51:31;6.65;;;3.38;;
69030;SDS011;56083;48.774;8.942;2023-04-25T04:53:57;8.73;;;4.00;;
69030;SDS011;56083;48.774;8.942;2023-04-25T04:56:27;6.78;;;3.35;;
69030;SDS011;56083;48.774;8.942;2023-04-25T04:58:58;7.72;;;3.50;;
69030;SDS011;56083;48.774;8.942;2023-04-25T05:01:25;8.73;;;3.67;;
69030;SDS011;56083;48.774;8.942;2023-04-25T05:03:51;6.25;;;3.10;;
69030;SDS011;56083;48.774;8.942;2023-04-25T05:06:20;7.57;;;3.10;;
69030;SDS011;56083;48.774;8.942;2023-04-25T05:08:46;6.03;;;3.20;;
69030;SDS011;56083;48.774;8.942;2023-04-25T05:11:11;6.97;;;3.50;;
69030;SDS011;56083;48.774;8.942;2023-04-25T05:13:37;7.05;;;3.63;;
69030;SDS011;56083;48.774;8.942;2023-04-25T05:16:03;6.60;;;4.28;;
69030;SDS011;56083;48.774;8.942;2023-04-25T05:18:28;7.22;;;4.03;;
69030;SDS011;56083;48.774;8.942;2023-04-25T05:20:54;7.38;;;3.28;;
69030;SDS011;56083;48.774;8.942;2023-04-25T05:23:20;5.10;;;3.10;;
69030;SDS011;56083;48.774;8.942;2023-04-25T05:25:46;7.95;;;3.30;;
69030;SDS011;56083;48.774;8.942;2023-04-25T05:28:12;6.57;;;3.35;;
69030;SDS011;56083;48.774;8.942;2023-04-25T05:30:38;6.10;;;3.40;;
69030;SDS011;56083;48.774;8.942;2023-04-25T05:33:04;6.80;;;3.28;;
69030;SDS011;56083;48.774;8.942;2023-04-25T05:35:30;5.95;;;3.47;;
69030;SDS011;56083;48.774;8.942;2023-04-25T05:37:55;6.07;;;3.28;;
69030;SDS011;56083;48.774;8.942;2023-04-25T05:40:21;5.35;;;2.80;;
69030;SDS011;56083;48.774;8.942;2023-04-25T05:42:47;4.35;;;3.05;;
69030;SDS011;56083;48.774;8.942;2023-04-25T05:45:12;4.38;;;2.60;;
69030;SDS011;56083;48.774;8.942;2023-04-25T05:47:38;3.92;;;3.00;;
69030;SDS011;56083;48.774;8.942;2023-04-25T05:50:04;5.35;;;2.63;;
69030;SDS011;56083;48.774;8.942;2023-04-25T05:52:30;6.20;;;2.92;;
69030;SDS011;56083;48.774;8.942;2023-04-25T05:54:56;9.02;;;2.90;;
69030;SDS011;56083;48.774;8.942;2023-04-25T05:57:25;5.25;;;3.00;;
69030;SDS011;56083;48.774;8.942;2023-04-25T05:59:52;5.88;;;2.92;;
69030;SDS011;56083;48.774;8.942;2023-04-25T06:02:18;7.63;;;3.05;;
69030;SDS011;56083;48.774;8.942;2023-04-25T06:04:46;8.55;;;3.30;;
69030;SDS011;56083;48.774;8.942;2023-04-25T06:07:12;4.68;;;3.22;;
69030;SDS011;56083;48.774;8.942;2023-04-25T06:09:38;8.93;;;3.72;;
69030;SDS011;56083;48.774;8.942;2023-04-25T06:12:06;6.95;;;3.60;;
69030;SDS011;56083;48.774;8.942;2023-04-25T06:14:32;5.72;;;3.15;;
69030;SDS011;56083;48.774;8.942;2023-04-25T06:16:59;9.23;;;3.13;;
69030;SDS011;56083;48.774;8.942;2023-04-25T06:19:31;6.97;;;3.60;;
69030;SDS011;56083;48.774;8.942;2023-04-25T06:21:57;8.10;;;4.20;;
69030;SDS011;56083;48.774;8.942;2023-04-25T06:24:23;5.78;;;4.30;;
69030;SDS011;56083;48.774;8.942;2023-04-25T06:26:49;6.88;;;4.72;;
69030;SDS011;56083;48.774;8.942;2023-04-25T06:29:14;8.80;;;4.90;;
69030;SDS011;56083;48.774;8.942;2023-04-25T06:31:40;6.07;;;4.35;;
69030;SDS011;56083;48.774;8.942;2023-04-25T06:34:06;10.85;;;5.22;;
69030;SDS011;56083;48.774;8.942;2023-04-25T06:36:31;9.38;;;4.78;;
69030;SDS011;56083;48.774;8.942;2023-04-25T06:38:57;9.50;;;4.97;;
69030;SDS011;56083;48.774;8.942;2023-04-25T06:41:23;12.98;;;6.05;;
69030;SDS011;56083;48.774;8.942;2023-04-25T06:43:48;9.77;;;5.68;;
69030;SDS011;56083;48.774;8.942;2023-04-25T06:46:14;12.63;;;6.43;;
69030;SDS011;56083;48.774;8.942;2023-04-25T06:48:39;13.10;;;6.72;;
69030;SDS011;56083;48.774;8.942;2023-04-25T06:51:05;8.35;;;6.78;;
69030;SDS011;56083;48.774;8.942;2023-04-25T06:53:31;10.05;;;6.80;;
69030;SDS011;56083;48.774;8.942;2023-04-25T06:55:57;12.50;;;7.18;;
69030;SDS011;56083;48.774;8.942;2023-04-25T06:58:22;11.27;;;7.50;;
69030;SDS011;56083;48.774;8.942;2023-04-25T07:00:48;13.60;;;7.88;;
69030;SDS011;56083;48.774;8.942;2023-04-25T07:03:14;12.50;;;7.75;;
69030;SDS011;56083;48.774;8.942;2023-04-25T07:05:39;11.65;;;8.63;;
69030;SDS011;56083;48.774;8.942;2023-04-25T07:08:05;14.18;;;8.70;;
69030;SDS011;56083;48.774;8.942;2023-04-25T07:10:31;11.40;;;8.10;;
69030;SDS011;56083;48.774;8.942;2023-04-25T07:12:56;14.30;;;8.55;;
69030;SDS011;56083;48.774;8.942;2023-04-25T07:15:22;13.88;;;8.20;;
69030;SDS011;56083;48.774;8.942;2023-04-25T07:17:48;12.23;;;7.97;;
69030;SDS011;56083;48.774;8.942;2023-04-25T07:20:13;15.02;;;7.90;;
69030;SDS011;56083;48.774;8.942;2023-04-25T07:22:39;11.70;;;6.80;;
69030;SDS011;56083;48.774;8.942;2023-04-25T07:25:05;10.02;;;6.93;;
69030;SDS011;56083;48.774;8.942;2023-04-25T07:27:31;14.18;;;8.15;;
69030;SDS011;56083;48.774;8.942;2023-04-25T07:29:57;13.52;;;7.75;;
69030;SDS011;56083;48.774;8.942;2023-04-25T07:32:24;12.90;;;7.53;;
69030;SDS011;56083;48.774;8.942;2023-04-25T07:34:50;15.98;;;7.63;;
69030;SDS011;56083;48.774;8.942;2023-04-25T07:37:16;12.73;;;8.75;;
69030;SDS011;56083;48.774;8.942;2023-04-25T07:39:43;11.57;;;7.63;;
69030;SDS011;56083;48.774;8.942;2023-04-25T07:42:11;11.55;;;7.75;;
69030;SDS011;56083;48.774;8.942;2023-04-25T07:44:36;13.77;;;8.98;;
69030;SDS011;56083;48.774;8.942;2023-04-25T07:47:08;12.93;;;8.40;;
69030;SDS011;56083;48.774;8.942;2023-04-25T07:49:37;14.00;;;8.30;;
69030;SDS011;56083;48.774;8.942;2023-04-25T07:52:03;12.52;;;7.82;;
69030;SDS011;56083;48.774;8.942;2023-04-25T07:54:34;13.35;;;7.97;;
69030;SDS011;56083;48.774;8.942;2023-04-25T07:57:00;13.35;;;8.45;;
69030;SDS011;56083;48.774;8.942;2023-04-25T07:59:25;13.57;;;8.73;;
69030;SDS011;56083;48.774;8.942;2023-04-25T08:01:51;11.95;;;8.20;;
69030;SDS011;56083;48.774;8.942;2023-04-25T08:04:17;10.23;;;7.38;;
69030;SDS011;56083;48.774;8.942;2023-04-25T08:06:42;16.30;;;9.10;;
69030;SDS011;56083;48.774;8.942;2023-04-25T08:09:08;14.23;;;9.63;;
69030;SDS011;56083;48.774;8.942;2023-04-25T08:11:34;36.83;;;21.35;;
69030;SDS011;56083;48.774;8.942;2023-04-25T08:14:00;19.83;;;12.70;;
69030;SDS011;56083;48.774;8.942;2023-04-25T08:16:26;15.15;;;9.35;;
69030;SDS011;56083;48.774;8.942;2023-04-25T08:18:52;13.53;;;8.63;;
69030;SDS011;56083;48.774;8.942;2023-04-25T08:21:18;39.75;;;23.98;;
69030;SDS011;56083;48.774;8.942;2023-04-25T08:23:44;22.02;;;13.55;;
69030;SDS011;56083;48.774;8.942;2023-04-25T08:26:10;13.95;;;9.57;;
69030;SDS011;56083;48.774;8.942;2023-04-25T08:28:36;13.63;;;7.88;;
69030;SDS011;56083;48.774;8.942;2023-04-25T08:31:01;10.15;;;6.97;;
69030;SDS011;56083;48.774;8.942;2023-04-25T08:33:27;13.55;;;7.47;;
69030;SDS011;56083;48.774;8.942;2023-04-25T08:35:54;11.55;;;8.10;;
69030;SDS011;56083;48.774;8.942;2023-04-25T08:38:20;10.80;;;7.50;;
69030;SDS011;56083;48.774;8.942;2023-04-25T08:40:46;9.65;;;7.03;;
69030;SDS011;56083;48.774;8.942;2023-04-25T08:43:15;11.63;;;7.35;;
69030;SDS011;56083;48.774;8.942;2023-04-25T08:45:43;10.57;;;7.03;;
69030;SDS011;56083;48.774;8.942;2023-04-25T08:48:11;12.38;;;8.38;;
69030;SDS011;56083;48.774;8.942;2023-04-25T08:50:45;11.60;;;8.25;;
69030;SDS011;56083;48.774;8.942;2023-04-25T08:53:15;14.75;;;8.95;;
69030;SDS011;56083;48.774;8.942;2023-04-25T08:55:43;15.23;;;8.75;;
69030;SDS011;56083;48.774;8.942;2023-04-25T08:58:11;15.70;;;8.52;;
69030;SDS011;56083;48.774;8.942;2023-04-25T09:00:38;13.73;;;8.82;;
69030;SDS011;56083;48.774;8.942;2023-04-25T09:03:04;13.70;;;8.88;;
69030;SDS011;56083;48.774;8.942;2023-04-25T09:05:30;14.90;;;9.27;;
69030;SDS011;56083;48.774;8.942;2023-04-25T09:07:57;9.82;;;7.50;;
69030;SDS011;56083;48.774;8.942;2023-04-25T09:10:23;11.75;;;8.48;;
69030;SDS011;56083;48.774;8.942;2023-04-25T09:13:08;12.07;;;7.35;;
69030;SDS011;56083;48.774;8.942;2023-04-25T09:15:50;8.82;;;6.30;;
69030;SDS011;56083;48.774;8.942;2023-04-25T09:21:04;8.23;;;4.32;;
69030;SDS011;56083;48.774;8.942;2023-04-25T09:23:38;4.80;;;3.45;;
69030;SDS011;56083;48.774;8.942;2023-04-25T09:26:05;14.73;;;9.25;;
69030;SDS011;56083;48.774;8.942;2023-04-25T09:28:32;6.38;;;4.40;;
69030;SDS011;56083;48.774;8.942;2023-04-25T09:31:00;2.88;;;2.10;;
69030;SDS011;56083;48.774;8.942;2023-04-25T09:33:32;4.05;;;1.70;;
69030;SDS011;56083;48.774;8.942;2023-04-25T09:36:03;3.55;;;1.70;;
69030;SDS011;56083;48.774;8.942;2023-04-25T09:38:34;2.67;;;1.45;;
69030;SDS011;56083;48.774;8.942;2023-04-25T09:41:08;2.30;;;1.80;;
69030;SDS011;56083;48.774;8.942;2023-04-25T09:43:35;3.13;;;2.15;;
69030;SDS011;56083;48.774;8.942;2023-04-25T09:46:01;2.88;;;1.30;;
69030;SDS011;56083;48.774;8.942;2023-04-25T09:48:27;4.97;;;1.33;;
69030;SDS011;56083;48.774;8.942;2023-04-25T09:53:36;4.18;;;0.95;;
69030;SDS011;56083;48.774;8.942;2023-04-25T09:56:03;2.63;;;1.10;;
69030;SDS011;56083;48.774;8.942;2023-04-25T09:58:31;2.60;;;2.25;;
69030;SDS011;56083;48.774;8.942;2023-04-25T10:00:59;7.00;;;3.40;;
69030;SDS011;56083;48.774;8.942;2023-04-25T10:03:27;5.07;;;1.40;;
69030;SDS011;56083;48.774;8.942;2023-04-25T10:06:00;2.75;;;1.30;;
69030;SDS011;56083;48.774;8.942;2023-04-25T10:08:33;5.25;;;3.60;;
69030;SDS011;56083;48.774;8.942;2023-04-25T10:11:04;1.50;;;1.10;;
69030;SDS011;56083;48.774;8.942;2023-04-25T10:13:31;1.30;;;1.00;;
69030;SDS011;56083;48.774;8.942;2023-04-25T10:15:59;1.60;;;0.80;;
69030;SDS011;56083;48.774;8.942;2023-04-25T10:18:29;1.17;;;0.82;;
69030;SDS011;56083;48.774;8.942;2023-04-25T10:20:56;1.48;;;1.08;;
69030;SDS011;56083;48.774;8.942;2023-04-25T10:23:24;1.73;;;1.35;;
69030;SDS011;56083;48.774;8.942;2023-04-25T10:25:50;2.05;;;1.40;;
69030;SDS011;56083;48.774;8.942;2023-04-25T10:28:17;3.28;;;1.50;;
69030;SDS011;56083;48.774;8.942;2023-04-25T10:30:59;1.33;;;1.00;;
69030;SDS011;56083;48.774;8.942;2023-04-25T10:33:39;1.53;;;0.80;;
69030;SDS011;56083;48.774;8.942;2023-04-25T10:36:08;1.38;;;0.80;;
69030;SDS011;56083;48.774;8.942;2023-04-25T10:38:36;2.28;;;1.00;;
69030;SDS011;56083;48.774;8.942;2023-04-25T10:41:03;1.80;;;0.82;;
69030;SDS011;56083;48.774;8.942;2023-04-25T10:43:34;1.45;;;0.80;;
69030;SDS011;56083;48.774;8.942;2023-04-25T10:46:47;2.67;;;1.20;;
69030;SDS011;56083;48.774;8.942;2023-04-25T10:48:56;1.63;;;1.05;;
69030;SDS011;56083;48.774;8.942;2023-04-25T10:51:23;5.68;;;2.10;;
69030;SDS011;56083;48.774;8.942;2023-04-25T10:56:20;8.50;;;6.18;;
69030;SDS011;56083;48.774;8.942;2023-04-25T10:58:47;7.90;;;5.78;;
69030;SDS011;56083;48.774;8.942;2023-04-25T11:01:15;6.00;;;5.22;;
69030;SDS011;56083;48.774;8.942;2023-04-25T11:03:46;7.50;;;4.47;;
69030;SDS011;56083;48.774;8.942;2023-04-25T11:09:12;5.15;;;3.30;;
69030;SDS011;56083;48.774;8.942;2023-04-25T11:11:38;6.05;;;3.70;;
69030;SDS011;56083;48.774;8.942;2023-04-25T11:14:05;5.72;;;4.18;;
69030;SDS011;56083;48.774;8.942;2023-04-25T11:16:31;6.88;;;3.55;;
69030;SDS011;56083;48.774;8.942;2023-04-25T11:18:57;4.32;;;3.38;;
69030;SDS011;56083;48.774;8.942;2023-04-25T11:21:25;4.00;;;3.30;;
69030;SDS011;56083;48.774;8.942;2023-04-25T11:23:52;4.65;;;3.65;;
69030;SDS011;56083;48.774;8.942;2023-04-25T11:26:19;4.07;;;3.40;;
69030;SDS011;56083;48.774;8.942;2023-04-25T11:28:45;4.30;;;3.17;;
69030;SDS011;56083;48.774;8.942;2023-04-25T11:31:12;2.80;;;2.35;;
69030;SDS011;56083;48.774;8.942;2023-04-25T11:33:37;4.70;;;2.22;;
69030;SDS011;56083;48.774;8.942;2023-04-25T11:36:05;2.17;;;1.92;;
69030;SDS011;56083;48.774;8.942;2023-04-25T11:38:31;2.83;;;2.20;;
69030;SDS011;56083;48.774;8.942;2023-04-25T11:40:57;4.35;;;1.90;;
69030;SDS011;56083;48.774;8.942;2023-04-25T11:43:23;3.72;;;1.63;;
69030;SDS011;56083;48.774;8.942;2023-04-25T11:45:49;2.45;;;1.60;;
69030;SDS011;56083;48.774;8.942;2023-04-25T11:48:18;4.65;;;2.20;;
69030;SDS011;56083;48.774;8.942;2023-04-25T11:50:45;5.90;;;2.35;;
69030;SDS011;56083;48.774;8.942;2023-04-25T11:53:10;6.38;;;2.85;;
69030;SDS011;56083;48.774;8.942;2023-04-25T11:55:36;9.75;;;3.92;;
69030;SDS011;56083;48.774;8.942;2023-04-25T11:58:02;6.38;;;3.78;;
69030;SDS011;56083;48.774;8.942;2023-04-25T12:00:29;6.35;;;3.88;;
69030;SDS011;56083;48.774;8.942;2023-04-25T12:02:56;7.00;;;4.50;;
69030;SDS011;56083;48.774;8.942;2023-04-25T12:05:31;9.85;;;5.78;;
69030;SDS011;56083;48.774;8.942;2023-04-25T12:08:09;9.18;;;5.35;;
69030;SDS011;56083;48.774;8.942;2023-04-25T12:10:37;11.43;;;5.68;;
69030;SDS011;56083;48.774;8.942;2023-04-25T12:13:20;8.10;;;5.10;;
69030;SDS011;56083;48.774;8.942;2023-04-25T12:15:47;10.77;;;5.88;;
69030;SDS011;56083;48.774;8.942;2023-04-25T12:18:14;10.45;;;6.45;;
69030;SDS011;56083;48.774;8.942;2023-04-25T12:20:41;10.65;;;6.05;;
69030;SDS011;56083;48.774;8.942;2023-04-25T12:23:07;9.85;;;6.47;;
69030;SDS011;56083;48.774;8.942;2023-04-25T12:25:37;11.57;;;5.90;;
69030;SDS011;56083;48.774;8.942;2023-04-25T12:33:23;10.80;;;6.90;;
69030;SDS011;56083;48.774;8.942;2023-04-25T12:35:53;8.68;;;5.28;;
69030;SDS011;56083;48.774;8.942;2023-04-25T12:38:26;11.77;;;5.50;;
69030;SDS011;56083;48.774;8.942;2023-04-25T12:40:54;7.68;;;5.47;;
69030;SDS011;56083;48.774;8.942;2023-04-25T12:43:21;9.38;;;5.63;;
69030;SDS011;56083;48.774;8.942;2023-04-25T12:45:48;7.88;;;5.53;;
69030;SDS011;56083;48.774;8.942;2023-04-25T12:48:16;8.68;;;4.90;;
69030;SDS011;56083;48.774;8.942;2023-04-25T12:50:43;6.90;;;4.68;;
69030;SDS011;56083;48.774;8.942;2023-04-25T12:53:10;8.48;;;4.43;;
69030;SDS011;56083;48.774;8.942;2023-04-25T12:55:36;7.78;;;4.05;;
69030;SDS011;56083;48.774;8.942;2023-04-25T12:58:02;6.82;;;4.10;;
69030;SDS011;56083;48.774;8.942;2023-04-25T13:00:28;7.75;;;4.00;;
69030;SDS011;56083;48.774;8.942;2023-04-25T13:02:54;8.27;;;4.45;;
69030;SDS011;56083;48.774;8.942;2023-04-25T13:05:20;7.63;;;4.82;;
69030;SDS011;56083;48.774;8.942;2023-04-25T13:07:46;8.27;;;5.28;;
69030;SDS011;56083;48.774;8.942;2023-04-25T13:10:11;8.85;;;5.10;;
69030;SDS011;56083;48.774;8.942;2023-04-25T13:12:37;9.88;;;4.88;;
69030;SDS011;56083;48.774;8.942;2023-04-25T13:15:05;5.30;;;4.22;;
69030;SDS011;56083;48.774;8.942;2023-04-25T13:17:31;6.78;;;4.72;;
69030;SDS011;56083;48.774;8.942;2023-04-25T13:19:57;10.30;;;4.50;;
69030;SDS011;56083;48.774;8.942;2023-04-25T13:22:23;13.00;;;5.43;;
69030;SDS011;56083;48.774;8.942;2023-04-25T13:24:48;9.10;;;5.00;;
69030;SDS011;56083;48.774;8.942;2023-04-25T13:27:14;9.32;;;5.20;;
69030;SDS011;56083;48.774;8.942;2023-04-25T13:29:41;9.82;;;5.35;;
69030;SDS011;56083;48.774;8.942;2023-04-25T13:32:08;7.65;;;5.00;;
69030;SDS011;56083;48.774;8.942;2023-04-25T13:34:34;8.45;;;5.07;;
69030;SDS011;56083;48.774;8.942;2023-04-25T13:37:00;8.35;;;5.05;;
69030;SDS011;56083;48.774;8.942;2023-04-25T13:39:25;7.40;;;5.28;;
69030;SDS011;56083;48.774;8.942;2023-04-25T13:41:59;8.50;;;5.82;;
69030;SDS011;56083;48.774;8.942;2023-04-25T13:44:25;8.35;;;4.75;;
69030;SDS011;56083;48.774;8.942;2023-04-25T13:46:50;6.18;;;4.10;;
69030;SDS011;56083;48.774;8.942;2023-04-25T13:49:16;6.07;;;3.90;;
69030;SDS011;56083;48.774;8.942;2023-04-25T13:51:42;5.25;;;3.33;;
69030;SDS011;56083;48.774;8.942;2023-04-25T13:54:08;4.22;;;3.13;;
69030;SDS011;56083;48.774;8.942;2023-04-25T13:56:34;5.68;;;3.60;;
69030;SDS011;56083;48.774;8.942;2023-04-25T13:59:00;6.78;;;3.35;;
69030;SDS011;56083;48.774;8.942;2023-04-25T14:01:26;5.95;;;3.75;;
69030;SDS011;56083;48.774;8.942;2023-04-25T14:03:52;7.57;;;3.95;;
69030;SDS011;56083;48.774;8.942;2023-04-25T14:06:18;9.32;;;4.20;;
69030;SDS011;56083;48.774;8.942;2023-04-25T14:08:48;8.50;;;3.65;;
69030;SDS011;56083;48.774;8.942;2023-04-25T14:11:14;5.25;;;3.60;;
69030;SDS011;56083;48.774;8.942;2023-04-25T14:13:45;8.82;;;3.70;;
69030;SDS011;56083;48.774;8.942;2023-04-25T14:16:11;6.80;;;3.25;;
69030;SDS011;56083;48.774;8.942;2023-04-25T14:18:37;6.43;;;3.47;;
69030;SDS011;56083;48.774;8.942;2023-04-25T14:21:02;5.93;;;3.15;;
69030;SDS011;56083;48.774;8.942;2023-04-25T14:23:28;4.63;;;2.95;;
69030;SDS011;56083;48.774;8.942;2023-04-25T14:25:53;5.30;;;2.83;;
69030;SDS011;56083;48.774;8.942;2023-04-25T14:28:19;5.45;;;3.00;;
69030;SDS011;56083;48.774;8.942;2023-04-25T14:30:45;4.45;;;2.65;;
69030;SDS011;56083;48.774;8.942;2023-04-25T14:33:11;4.45;;;2.67;;
69030;SDS011;56083;48.774;8.942;2023-04-25T14:35:36;4.13;;;2.72;;
69030;SDS011;56083;48.774;8.942;2023-04-25T14:38:02;5.35;;;2.70;;
69030;SDS011;56083;48.774;8.942;2023-04-25T14:40:28;4.35;;;2.75;;
69030;SDS011;56083;48.774;8.942;2023-04-25T14:42:55;6.47;;;2.70;;
69030;SDS011;56083;48.774;8.942;2023-04-25T14:45:20;3.13;;;2.35;;
69030;SDS011;56083;48.774;8.942;2023-04-25T14:47:47;7.53;;;2.70;;
69030;SDS011;56083;48.774;8.942;2023-04-25T14:50:13;4.32;;;2.63;;
69030;SDS011;56083;48.774;8.942;2023-04-25T14:52:39;4.10;;;2.35;;
69030;SDS011;56083;48.774;8.942;2023-04-25T14:55:05;2.70;;;1.80;;
69030;SDS011;56083;48.774;8.942;2023-04-25T14:57:32;2.88;;;2.13;;
69030;SDS011;56083;48.774;8.942;2023-04-25T14:59:58;4.38;;;2.03;;